Time;durP1;ratioP1;P1;durP2;ratioP2;P2;SDS_P1;SDS_P2;PMS_P1;PMS_P2;Temp;Humidity;BMP_temperature;BMP_pressure;BME280_temperature;BME280_humidity;BME280_pressure;Samples;Min_cycle;Max_cycle;Signal;HPM_P1;HPM_P2
2024/04/17 00:03:35;;;;;;;;;;;18.40;49.30;;;17.77;45.82;98991.44;11027678;26;1876;-67
2024/04/17 00:08:30;;;;;;;;;;;18.40;49.30;;;17.76;45.71;98998.47;11028029;26;921;-67
2024/04/17 00:13:25;;;;;;;;;;;18.40;49.30;;;17.77;45.35;98997.53;11028302;26;921;-67
2024/04/17 00:18:21;;;;;;;;;;;18.40;49.30;;;17.75;45.67;99002.03;11027671;26;827;-67
2024/04/17 00:23:16;;;;;;;;;;;18.40;49.20;;;17.74;45.84;99003.84;11027946;26;1836;-67
2024/04/17 00:28:11;;;;;;;;;;;18.40;49.30;;;17.74;45.58;99006.47;11027216;26;815;-67
2024/04/17 00:33:07;;;;;;;;;;;18.40;49.30;;;17.74;45.60;99017.00;11027093;26;892;-67
2024/04/17 00:38:02;;;;;;;;;;;18.30;49.20;;;17.73;45.79;99009.16;11026978;26;886;-67
2024/04/17 00:42:58;;;;;;;;;;;18.30;49.20;;;17.72;45.25;99013.59;11026622;26;1870;-67
2024/04/17 00:47:53;;;;;;;;;;;18.30;49.20;;;17.72;45.25;99010.13;11027143;26;894;-67
2024/04/17 00:52:49;;;;;;;;;;;18.30;49.20;;;17.72;45.42;99015.38;11027003;26;887;-67
2024/04/17 00:57:44;;;;;;;;;;;18.30;49.20;;;17.71;45.44;99009.28;11026210;26;942;-67
2024/04/17 01:02:39;;;;;;;;;;;18.30;49.20;;;17.70;45.40;99010.19;11025170;26;1857;-67
2024/04/17 01:07:35;;;;;;;;;;;18.30;49.30;;;17.70;45.60;99012.81;11025494;26;916;-67
2024/04/17 01:12:30;;;;;;;;;;;18.30;49.30;;;17.69;45.24;99016.41;11024951;26;827;-67
2024/04/17 01:17:26;;;;;;;;;;;18.30;49.20;;;17.68;45.27;99012.09;11024747;26;930;-67
2024/04/17 01:22:21;;;;;;;;;;;18.30;49.10;;;17.68;45.69;99014.72;11024504;26;1826;-67
2024/04/17 01:27:16;;;;;;;;;;;18.30;49.20;;;17.67;45.44;99012.16;11026019;26;819;-67
2024/04/17 01:32:12;;;;;;;;;;;18.30;49.10;;;17.67;45.69;99013.00;11032552;26;899;-67
2024/04/17 01:37:07;;;;;;;;;;;18.20;49.20;;;17.66;45.19;99016.59;11031352;26;905;-67
2024/04/17 01:42:03;;;;;;;;;;;18.30;49.10;;;17.66;45.28;99015.75;11031910;26;1838;-67
2024/04/17 01:46:58;;;;;;;;;;;18.20;49.10;;;17.65;45.89;99006.94;11031910;26;818;-67
2024/04/17 01:51:53;;;;;;;;;;;18.20;49.10;;;17.64;45.70;99014.97;11031034;26;850;-67
2024/04/17 01:56:51;;;;;;;;;;;18.30;49.20;;;17.63;45.63;99016.75;11030867;26;928;-67
2024/04/17 02:01:46;;;;;;;;;;;18.20;49.10;;;17.64;45.55;99017.59;11030906;26;1849;-67
2024/04/17 02:06:42;;;;;;;;;;;18.30;49.10;;;17.63;45.37;99016.75;11031296;26;903;-67
2024/04/17 02:11:37;;;;;;;;;;;18.20;49.10;;;17.62;45.69;99015.03;11031529;26;890;-67
2024/04/17 02:16:33;;;;;;;;;;;18.20;49.00;;;17.61;45.14;99010.72;11031081;26;821;-67
2024/04/17 02:21:28;;;;;;;;;;;18.20;49.10;;;17.60;45.30;99014.25;11030832;26;1842;-67
2024/04/17 02:26:23;;;;;;;;;;;18.20;49.10;;;17.61;45.63;99023.03;11030767;26;738;-67
2024/04/17 02:31:19;;;;;;;;;;;18.20;48.90;;;17.60;45.23;99022.16;11031412;26;897;-67
2024/04/17 02:36:14;;;;;;;;;;;18.20;48.90;;;17.60;45.17;99026.59;11031080;26;923;-67
2024/04/17 02:41:09;;;;;;;;;;;18.20;49.00;;;17.59;45.86;99032.81;11030196;26;1855;-67
2024/04/17 02:46:05;;;;;;;;;;;18.20;48.90;;;17.58;45.78;99028.44;11030167;26;900;-67
2024/04/17 02:51:00;;;;;;;;;;;18.20;48.90;;;17.59;45.15;99038.06;11030726;26;924;-67
2024/04/17 02:55:56;;;;;;;;;;;18.10;48.90;;;17.58;45.45;99037.22;11029792;26;1434;-67
2024/04/17 03:00:51;;;;;;;;;;;18.10;48.90;;;17.58;45.45;99044.25;11029686;26;1833;-67
2024/04/17 03:05:46;;;;;;;;;;;18.10;48.80;;;17.56;45.51;99032.97;11029063;26;899;-67
2024/04/17 03:10:42;;;;;;;;;;;18.10;48.90;;;17.56;45.76;99036.44;11028700;26;879;-67
2024/04/17 03:15:37;;;;;;;;;;;18.10;48.80;;;17.54;45.42;99035.69;11028700;26;884;-67
2024/04/17 03:20:34;;;;;;;;;;;18.10;48.80;;;17.53;45.74;99045.38;11029248;26;855;-67
2024/04/17 03:25:29;;;;;;;;;;;18.20;48.80;;;17.54;45.81;99046.22;11028359;26;1822;-67
2024/04/17 03:30:25;;;;;;;;;;;18.20;48.80;;;17.52;45.20;99048.06;11029012;26;877;-67
2024/04/17 03:35:20;;;;;;;;;;;18.10;48.80;;;17.52;45.12;99050.72;11028147;26;906;-68
2024/04/17 03:40:15;;;;;;;;;;;18.10;48.80;;;17.53;45.80;99049.81;11028299;26;898;-67
2024/04/17 03:45:11;;;;;;;;;;;18.10;48.80;;;17.52;45.20;99055.97;11028446;26;1826;-67
2024/04/17 03:50:06;;;;;;;;;;;18.20;48.70;;;17.53;45.22;99055.91;11027454;26;826;-67
2024/04/17 03:55:02;;;;;;;;;;;18.20;48.70;;;17.54;45.52;99056.75;11027587;26;830;-67
2024/04/17 03:59:57;;;;;;;;;;;18.20;48.60;;;17.56;45.14;99060.16;11027483;26;1162;-70
2024/04/17 04:04:53;;;;;;;;;;;18.30;48.50;;;17.58;45.33;99060.06;11028984;26;1857;-69
2024/04/17 04:09:49;;;;;;;;;;;18.30;48.50;;;17.59;45.36;99062.63;11028194;26;832;-67
2024/04/17 04:14:44;;;;;;;;;;;18.30;48.50;;;17.60;45.42;99066.13;11027690;26;933;-67
2024/04/17 04:19:40;;;;;;;;;;;18.30;48.50;;;17.61;45.41;99063.41;11027484;26;847;-68
2024/04/17 04:24:35;;;;;;;;;;;18.40;48.60;;;17.62;45.43;99073.00;11027334;26;1859;-67
2024/04/17 04:29:30;;;;;;;;;;;18.40;48.60;;;17.64;45.63;99076.41;11027818;26;1021;-67
2024/04/17 04:34:26;;;;;;;;;;;18.40;48.50;;;17.66;45.22;99073.72;11027090;26;898;-68
2024/04/17 04:39:21;;;;;;;;;;;18.40;48.50;;;17.67;45.16;99080.69;11026822;26;900;-67
2024/04/17 04:44:17;;;;;;;;;;;18.50;48.50;;;17.67;45.18;99075.41;11027255;26;1830;-67
2024/04/17 04:49:12;;;;;;;;;;;18.50;48.50;;;17.69;45.15;99078.81;11027216;26;916;-67
2024/04/17 04:54:07;;;;;;;;;;;18.50;48.60;;;17.71;45.65;99071.66;11026393;26;863;-67
2024/04/17 04:59:03;;;;;;;;;;;18.50;48.60;;;17.69;45.18;99079.66;11133209;26;1754;-67
2024/04/17 05:03:58;;;;;;;;;;;18.50;48.60;;;17.72;45.48;99076.00;11176544;26;1830;-67
2024/04/17 05:08:54;;;;;;;;;;;18.50;48.50;;;17.73;45.72;99075.06;11179719;26;887;-67
2024/04/17 05:13:49;;;;;;;;;;;18.50;48.60;;;17.73;45.09;99085.63;11179617;26;933;-68
2024/04/17 05:18:45;;;;;;;;;;;18.50;48.60;;;17.73;45.54;99081.19;11179360;26;899;-71
2024/04/17 05:23:40;;;;;;;;;;;18.50;48.60;;;17.75;45.49;99079.31;11179501;26;1825;-67
2024/04/17 05:28:36;;;;;;;;;;;18.50;48.60;;;17.77;45.28;99078.41;11178874;26;1043;-67
2024/04/17 05:33:31;;;;;;;;;;;18.50;48.80;;;17.76;45.58;99074.91;11179351;26;832;-66
2024/04/17 05:38:27;;;;;;;;;;;18.60;48.80;;;17.79;45.45;99073.88;11179471;26;880;-68
2024/04/17 05:43:22;;;;;;;;;;;18.60;48.90;;;17.79;45.41;99073.88;11179128;26;1853;-67
2024/04/17 05:48:17;;;;;;;;;;;18.60;48.90;;;17.77;45.86;99081.88;11179140;26;876;-68
2024/04/17 05:53:13;;;;;;;;;;;18.50;48.90;;;17.79;45.26;99087.06;11179111;26;831;-67
2024/04/17 05:58:08;;;;;;;;;;;18.50;48.80;;;17.79;45.38;99089.69;11178764;26;867;-67
2024/04/17 06:03:04;;;;;;;;;;;18.50;48.70;;;17.78;45.71;99088.00;11178429;26;1830;-68
2024/04/17 06:07:59;;;;;;;;;;;18.50;48.70;;;17.77;45.45;99092.44;11178027;26;970;-68
2024/04/17 06:12:54;;;;;;;;;;;18.50;48.70;;;17.75;45.90;99089.03;11177771;26;891;-67
2024/04/17 06:17:50;;;;;;;;;;;18.50;48.60;;;17.74;45.49;99106.63;11177676;26;845;-70
2024/04/17 06:22:45;;;;;;;;;;;18.50;48.60;;;17.72;45.66;99105.00;11178162;26;1847;-70
2024/04/17 06:27:41;;;;;;;;;;;18.40;48.60;;;17.71;45.29;99105.91;11177421;26;1008;-68
2024/04/17 06:32:36;;;;;;;;;;;18.40;48.50;;;17.69;45.31;99103.38;11177776;26;822;-69
2024/04/17 06:37:32;;;;;;;;;;;18.40;48.80;;;17.69;45.38;99108.66;11177182;26;843;-69
2024/04/17 06:42:27;;;;;;;;;;;18.40;48.90;;;17.71;45.59;99108.56;11176849;26;1818;-68
2024/04/17 06:47:22;;;;;;;;;;;18.40;49.10;;;17.72;45.78;99107.63;11176773;26;907;-68
2024/04/17 06:52:18;;;;;;;;;;;18.40;48.90;;;17.71;46.11;99106.78;11176734;26;994;-67
2024/04/17 06:57:13;;;;;;;;;;;18.40;48.90;;;17.71;45.30;99104.16;11176586;26;1009;-68
2024/04/17 07:02:10;;;;;;;;;;;18.40;49.00;;;17.73;45.55;99111.97;11177075;26;1856;-67
2024/04/17 07:07:06;;;;;;;;;;;18.40;49.00;;;17.74;45.34;99108.41;11176882;26;916;-67
2024/04/17 07:12:01;;;;;;;;;;;18.50;48.90;;;17.75;45.42;99110.09;11177426;26;813;-68
2024/04/17 07:16:56;;;;;;;;;;;18.50;48.80;;;17.75;45.98;99107.47;11176660;26;941;-68
2024/04/17 07:21:52;;;;;;;;;;;18.50;48.80;;;17.75;45.95;99110.09;11176408;26;1826;-68
2024/04/17 07:26:47;;;;;;;;;;;18.50;48.90;;;17.74;45.53;99117.16;11175634;26;867;-68
2024/04/17 07:31:43;;;;;;;;;;;18.50;48.80;;;17.76;45.91;99117.06;11176166;26;876;-68
2024/04/17 07:36:39;;;;;;;;;;;18.50;48.90;;;17.74;45.41;99118.97;11176077;26;813;-69
2024/04/17 07:41:34;;;;;;;;;;;18.40;48.80;;;17.73;45.37;99111.97;11176437;26;1822;-68
2024/04/17 07:46:30;;;;;;;;;;;18.40;48.50;;;17.72;45.28;99107.63;11176422;26;887;-68
2024/04/17 07:51:25;;;;;;;;;;;18.40;48.40;;;17.69;45.45;99106.03;11175614;26;869;-68
2024/04/17 07:56:20;;;;;;;;;;;18.40;48.00;;;17.68;44.77;99111.34;11176127;26;885;-68
2024/04/17 08:01:17;;;;;;;;;;;18.30;47.60;;;17.66;45.25;99115.88;11174623;26;1839;-68
2024/04/17 08:06:12;;;;;;;;;;;18.30;47.40;;;17.64;44.53;99115.94;11174588;26;855;-68
2024/04/17 08:11:08;;;;;;;;;;;18.20;47.10;;;17.63;45.02;99116.91;11174900;26;913;-69
2024/04/17 08:16:03;;;;;;;;;;;18.20;46.90;;;17.64;44.20;99117.75;11175026;26;815;-69
2024/04/17 08:20:58;;;;;;;;;;;18.30;46.70;;;17.62;44.75;99111.69;11174569;26;1849;-69
2024/04/17 08:25:54;;;;;;;;;;;18.30;46.80;;;17.63;44.06;99121.28;11173848;26;901;-69
2024/04/17 08:30:49;;;;;;;;;;;18.30;46.70;;;17.62;44.19;99116.97;11173742;26;1009;-69
2024/04/17 08:35:44;;;;;;;;;;;18.30;46.70;;;17.62;44.40;99120.44;11173866;26;875;-69
2024/04/17 08:40:40;;;;;;;;;;;18.30;46.70;;;17.64;44.32;99133.56;11173436;26;871;-70
2024/04/17 08:45:35;;;;;;;;;;;18.40;46.90;;;17.65;44.11;99124.69;11173087;26;1821;-71
2024/04/17 08:50:31;;;;;;;;;;;18.40;46.80;;;17.65;44.54;99122.91;11173740;26;956;-69
2024/04/17 08:55:26;;;;;;;;;;;18.40;46.90;;;17.67;44.13;99122.84;11172901;26;873;-69
2024/04/17 09:00:22;;;;;;;;;;;18.40;46.90;;;17.67;44.63;99113.16;11172925;26;1121;-68
2024/04/17 09:05:17;;;;;;;;;;;18.50;47.00;;;17.67;44.27;99128.97;11173751;26;1856;-69
2024/04/17 09:10:13;;;;;;;;;;;18.50;47.00;;;17.68;44.43;99129.81;11173648;26;888;-69
2024/04/17 09:15:08;;;;;;;;;;;18.50;47.00;;;17.68;44.85;99130.69;11173411;26;847;-69
2024/04/17 09:20:03;;;;;;;;;;;18.50;47.20;;;17.68;44.54;99128.06;11172565;26;878;-68
2024/04/17 09:24:59;;;;;;;;;;;18.60;47.10;;;17.71;44.54;99132.28;11170774;26;1821;-70
2024/04/17 09:29:54;;;;;;;;;;;18.60;47.30;;;17.70;44.81;99131.44;11172853;26;957;-69
2024/04/17 09:34:50;;;;;;;;;;;18.60;47.30;;;17.72;44.29;99131.38;11172001;26;847;-69
2024/04/17 09:39:45;;;;;;;;;;;18.60;47.30;;;17.74;44.97;99132.13;11172613;26;889;-69
2024/04/17 09:44:42;;;;;;;;;;;18.60;47.30;;;17.74;44.69;99126.88;11171677;26;1821;-69
2024/04/17 09:49:37;;;;;;;;;;;18.60;47.40;;;17.75;44.25;99132.03;11175360;26;904;-72
2024/04/17 09:54:33;;;;;;;;;;;18.60;47.50;;;17.77;44.53;99133.75;11179079;26;897;-69
2024/04/17 09:59:28;;;;;;;;;;;18.60;47.50;;;17.77;44.79;99129.34;11178604;26;1121;-68
2024/04/17 10:04:24;;;;;;;;;;;18.70;47.60;;;17.79;44.85;99131.88;11179149;26;1828;-69
2024/04/17 10:09:19;;;;;;;;;;;18.70;47.70;;;17.81;44.89;99140.59;11177973;26;895;-69
2024/04/17 10:14:15;;;;;;;;;;;18.70;47.60;;;17.81;44.61;99133.53;11177906;26;838;-69
2024/04/17 10:19:10;;;;;;;;;;;18.70;47.70;;;17.83;44.89;99128.19;11178416;26;809;-69
2024/04/17 10:24:06;;;;;;;;;;;18.70;47.80;;;17.84;44.63;99129.88;11177507;26;1839;-71
2024/04/17 10:29:01;;;;;;;;;;;18.70;47.90;;;17.85;44.51;99134.25;11178088;26;841;-69
2024/04/17 10:33:57;;;;;;;;;;;18.80;47.90;;;17.85;44.99;99137.72;11177961;26;891;-69
2024/04/17 10:38:52;;;;;;;;;;;18.70;47.90;;;17.88;45.28;99134.06;11177918;26;824;-68
2024/04/17 10:43:48;;;;;;;;;;;18.80;48.00;;;17.92;45.14;99138.22;11176952;26;1821;-68
2024/04/17 10:48:43;;;;;;;;;;;18.80;48.00;;;17.94;45.11;99136.38;11176855;26;894;-68
2024/04/17 10:53:39;;;;;;;;;;;18.90;48.20;;;17.97;45.46;99141.47;11177331;26;1000;-69
2024/04/17 10:58:34;;;;;;;;;;;18.90;48.20;;;18.00;45.05;99127.28;11176412;26;953;-69
2024/04/17 11:03:30;;;;;;;;;;;18.90;48.20;;;18.00;45.45;99125.50;11177417;26;1890;-69
2024/04/17 11:08:25;;;;;;;;;;;18.80;48.30;;;18.02;44.89;99128.03;11177561;26;859;-68
2024/04/17 11:13:20;;;;;;;;;;;18.90;48.30;;;18.03;45.44;99125.34;11176619;26;933;-68
2024/04/17 11:18:16;;;;;;;;;;;18.90;48.30;;;18.04;45.03;99116.47;11177297;26;910;-69
2024/04/17 11:23:12;;;;;;;;;;;18.80;48.40;;;18.06;45.14;99116.41;11176412;26;1845;-69
2024/04/17 11:28:07;;;;;;;;;;;18.90;48.40;;;18.07;45.15;99108.41;11176404;26;925;-72
2024/04/17 11:33:03;;;;;;;;;;;18.90;48.40;;;18.06;45.27;99104.06;11176892;26;877;-71
2024/04/17 11:37:58;;;;;;;;;;;18.80;48.40;;;18.06;45.02;99108.50;11176019;26;892;-73
2024/04/17 11:42:53;;;;;;;;;;;18.80;48.20;;;18.06;44.75;99106.72;11175925;26;1832;-71
2024/04/17 11:47:49;;;;;;;;;;;18.80;48.20;;;18.03;45.20;99098.97;11176463;26;897;-71
2024/04/17 11:52:44;;;;;;;;;;;18.70;48.10;;;18.02;44.93;99102.53;11176269;26;861;-74
2024/04/17 11:57:40;;;;;;;;;;;18.70;48.20;;;18.03;45.32;99098.97;11176082;26;737;-69
2024/04/17 12:02:35;;;;;;;;;;;18.80;48.20;;;18.05;44.66;99097.09;11174934;26;1828;-69
2024/04/17 12:07:30;;;;;;;;;;;18.80;48.20;;;18.09;44.88;99088.06;11175184;26;882;-70
2024/04/17 12:12:27;;;;;;;;;;;18.80;48.20;;;18.09;45.20;99080.16;11174255;26;960;-69
2024/04/17 12:17:23;;;;;;;;;;;18.90;48.00;;;18.10;45.19;99086.28;11174291;26;1252;-69
2024/04/17 12:22:19;;;;;;;;;;;18.90;48.20;;;18.10;44.88;99084.53;11173603;26;1837;-69
2024/04/17 12:27:14;;;;;;;;;;;18.90;48.10;;;18.10;45.14;99089.78;11174082;26;865;-69
2024/04/17 12:32:09;;;;;;;;;;;18.90;48.20;;;18.11;45.06;99088.00;11173266;26;969;-71
2024/04/17 12:37:05;;;;;;;;;;;18.90;48.10;;;18.11;45.17;99082.72;11173023;26;930;-71
2024/04/17 12:42:00;;;;;;;;;;;18.90;48.20;;;18.11;45.02;99080.94;11172886;26;1820;-74
2024/04/17 12:46:55;;;;;;;;;;;18.90;48.10;;;18.12;45.00;99079.13;11172720;26;847;-71
2024/04/17 12:51:51;;;;;;;;;;;18.90;48.10;;;18.14;44.88;99082.56;11173219;26;897;-71
2024/04/17 12:56:46;;;;;;;;;;;18.90;48.10;;;18.14;44.96;99082.56;11172284;26;855;-71
2024/04/17 13:01:42;;;;;;;;;;;18.90;48.10;;;18.12;44.93;99080.00;11171930;26;1828;-71
2024/04/17 13:06:37;;;;;;;;;;;19.00;48.20;;;18.11;45.22;99088.00;11171958;26;961;-71
2024/04/17 13:11:38;;;;;;;;;;;19.00;48.20;;;18.12;44.96;99095.81;11172435;26;922;-71
2024/04/17 13:16:33;;;;;;;;;;;18.90;48.20;;;18.13;44.84;99094.03;11172003;26;876;-71
2024/04/17 13:21:28;;;;;;;;;;;18.90;48.20;;;18.14;45.13;99095.75;11172082;26;1824;-71
2024/04/17 13:26:24;;;;;;;;;;;18.90;48.10;;;18.12;44.80;99102.88;11177717;26;834;-70
2024/04/17 13:31:19;;;;;;;;;;;18.90;48.20;;;18.11;45.38;99107.31;11179242;26;828;-70
2024/04/17 13:36:15;;;;;;;;;;;18.90;48.20;;;18.10;45.44;99099.47;11179067;26;901;-71
2024/04/17 13:41:10;;;;;;;;;;;18.90;48.20;;;18.11;45.17;99102.03;11178901;26;1850;-71
2024/04/17 13:46:05;;;;;;;;;;;18.90;48.20;;;18.13;44.69;99091.38;11178861;26;842;-70
2024/04/17 13:51:01;;;;;;;;;;;19.00;48.20;;;18.17;45.15;99090.28;11178743;26;851;-70
2024/04/17 13:55:56;;;;;;;;;;;19.00;48.20;;;18.18;44.80;99087.59;11177834;26;817;-71
2024/04/17 14:00:52;;;;;;;;;;;18.90;48.20;;;18.16;45.51;99088.59;11178097;26;1058;-71
2024/04/17 14:05:47;;;;;;;;;;;19.00;48.20;;;18.14;44.88;99075.47;11178813;26;1840;-71
2024/04/17 14:10:42;;;;;;;;;;;19.00;48.20;;;18.14;45.50;99070.22;11178819;26;823;-71
2024/04/17 14:15:38;;;;;;;;;;;19.00;48.20;;;18.12;44.92;99087.91;11177961;26;854;-71
2024/04/17 14:20:33;;;;;;;;;;;18.90;48.30;;;18.11;45.29;99085.38;11177867;26;926;-71
2024/04/17 14:25:29;;;;;;;;;;;18.90;48.40;;;18.13;45.19;99078.19;11178291;26;1825;-71
2024/04/17 14:30:24;;;;;;;;;;;18.90;48.30;;;18.13;44.95;99073.78;11178145;26;965;-71
2024/04/17 14:35:19;;;;;;;;;;;18.90;48.40;;;18.14;45.06;99064.94;11177471;26;919;-71
2024/04/17 14:40:15;;;;;;;;;;;18.90;48.40;;;18.28;45.22;99063.31;11177213;26;1015;-71
2024/04/17 14:45:10;;;;;;;;;;;19.00;48.30;;;18.47;44.97;99058.72;11176995;26;1821;-71
2024/04/17 14:50:05;;;;;;;;;;;19.20;48.30;;;18.55;44.93;99045.94;11176975;26;954;-71
2024/04/17 14:55:01;;;;;;;;;;;19.20;48.00;;;18.61;44.50;99048.19;11177421;26;965;-71
2024/04/17 14:59:56;;;;;;;;;;;19.30;48.10;;;18.63;44.63;99042.84;11176821;26;1191;-71
2024/04/17 15:04:52;;;;;;;;;;;19.30;48.10;;;18.63;44.43;99040.19;11176507;26;1828;-71
2024/04/17 15:09:47;;;;;;;;;;;19.30;48.70;;;18.65;44.83;99037.47;11176425;26;845;-71
2024/04/17 15:14:43;;;;;;;;;;;19.30;48.20;;;18.60;44.66;99045.63;11175725;26;848;-71
2024/04/17 15:19:39;;;;;;;;;;;19.30;48.10;;;18.51;44.73;99065.50;11176144;26;1000;-71
2024/04/17 15:24:34;;;;;;;;;;;19.30;48.10;;;18.45;45.08;99067.66;11175181;26;1850;-71
2024/04/17 15:29:30;;;;;;;;;;;19.20;48.10;;;18.43;45.21;99077.44;11175844;26;1114;-71
2024/04/17 15:34:26;;;;;;;;;;;19.20;48.20;;;18.41;44.84;99077.50;11175705;26;938;-71
2024/04/17 15:39:23;;;;;;;;;;;19.20;48.30;;;18.40;44.98;99079.31;11175609;26;823;-74
2024/04/17 15:44:19;;;;;;;;;;;19.20;48.30;;;18.37;44.76;99090.03;11174720;26;1844;-71
2024/04/17 15:49:14;;;;;;;;;;;19.20;48.20;;;18.36;45.14;99087.47;11173359;26;846;-71
2024/04/17 15:54:10;;;;;;;;;;;19.20;48.30;;;18.34;44.92;99074.38;11175190;26;888;-71
2024/04/17 15:59:05;;;;;;;;;;;19.10;48.30;;;18.35;45.14;99067.31;11174083;26;959;-71
2024/04/17 16:04:01;;;;;;;;;;;19.10;48.30;;;18.34;45.26;99065.63;11174734;26;1852;-71
2024/04/17 16:08:56;;;;;;;;;;;19.10;48.30;;;18.34;45.34;99065.63;11175272;26;950;-71
2024/04/17 16:13:52;;;;;;;;;;;19.20;48.50;;;18.33;45.48;99064.75;11174460;26;896;-70
2024/04/17 16:18:47;;;;;;;;;;;19.10;48.60;;;18.34;45.42;99063.00;11175098;26;805;-70
2024/04/17 16:23:42;;;;;;;;;;;19.10;48.60;;;18.33;45.29;99066.53;11174743;26;1872;-71
2024/04/17 16:28:41;;;;;;;;;;;19.10;48.70;;;18.34;45.34;99070.91;11173951;26;879;-70
2024/04/17 16:33:37;;;;;;;;;;;19.10;48.70;;;18.33;44.92;99074.47;11173867;26;892;-71
2024/04/17 16:38:32;;;;;;;;;;;19.10;48.50;;;18.33;45.23;99079.72;11173766;26;890;-70
2024/04/17 16:43:28;;;;;;;;;;;19.10;48.60;;;18.32;45.48;99093.88;11174141;26;2220;-71
2024/04/17 16:48:23;;;;;;;;;;;19.10;48.70;;;18.29;45.64;99097.53;11173381;26;911;-71
2024/04/17 16:53:18;;;;;;;;;;;19.10;48.70;;;18.28;45.32;99105.53;11173230;26;859;-71
2024/04/17 16:58:14;;;;;;;;;;;19.00;48.70;;;18.26;45.61;99107.38;11180434;26;894;-71
2024/04/17 17:03:09;;;;;;;;;;;18.90;48.80;;;18.22;45.35;99108.50;11188493;26;1856;-71
2024/04/17 17:08:04;;;;;;;;;;;18.90;48.90;;;18.20;45.10;99105.94;11189296;26;913;-70
2024/04/17 17:13:00;;;;;;;;;;;18.90;48.90;;;18.18;45.51;99108.69;11188608;26;958;-71
2024/04/17 17:17:55;;;;;;;;;;;18.80;48.90;;;18.18;45.49;99107.81;11188213;26;850;-71
2024/04/17 17:22:51;;;;;;;;;;;18.80;48.80;;;18.16;45.16;99107.91;11188702;26;1829;-70
2024/04/17 17:27:46;;;;;;;;;;;18.90;48.80;;;18.14;45.37;99109.78;11187949;26;910;-71
2024/04/17 17:32:41;;;;;;;;;;;18.80;48.80;;;18.14;45.68;99109.78;11188420;26;939;-71
2024/04/17 17:37:37;;;;;;;;;;;18.80;48.80;;;18.14;45.68;99115.03;11187571;26;882;-70
2024/04/17 17:42:32;;;;;;;;;;;18.90;48.80;;;18.14;45.57;99120.31;11187954;26;1824;-71
2024/04/17 17:47:28;;;;;;;;;;;18.90;48.80;;;18.15;45.32;99116.72;11187233;26;1008;-70
2024/04/17 17:52:26;;;;;;;;;;;18.90;48.70;;;18.14;45.46;99119.47;11187648;26;906;-71
2024/04/17 17:57:21;;;;;;;;;;;18.90;48.70;;;18.14;45.48;99128.22;11186768;26;875;-71
2024/04/17 18:02:17;;;;;;;;;;;18.90;48.80;;;18.15;45.47;99118.53;11185901;26;1824;-71
2024/04/17 18:07:14;;;;;;;;;;;18.90;48.70;;;18.14;45.57;99130.88;11186518;26;896;-71
2024/04/17 18:12:09;;;;;;;;;;;18.90;48.80;;;18.15;45.57;99137.00;11177280;26;876;-71
2024/04/17 18:17:05;;;;;;;;;;;19.00;48.70;;;18.15;45.59;99140.47;11178108;26;865;-71
2024/04/17 18:22:00;;;;;;;;;;;19.00;48.60;;;18.15;45.42;99145.75;11177227;26;1837;-71
2024/04/17 18:26:56;;;;;;;;;;;19.00;48.70;;;18.16;45.40;99144.00;11177774;26;923;-71
2024/04/17 18:31:51;;;;;;;;;;;19.00;48.60;;;18.16;45.37;99151.91;11176962;26;829;-71
2024/04/17 18:36:47;;;;;;;;;;;19.00;48.60;;;18.16;45.86;99155.38;11177737;26;957;-71
2024/04/17 18:41:42;;;;;;;;;;;19.00;48.70;;;18.15;45.60;99158.94;11176530;26;1848;-71
2024/04/17 18:46:38;;;;;;;;;;;19.00;48.70;;;18.16;45.47;99163.31;11177192;26;887;-71
2024/04/17 18:51:34;;;;;;;;;;;19.00;48.70;;;18.16;45.38;99168.56;11176422;26;908;-71
2024/04/17 18:56:29;;;;;;;;;;;19.00;48.70;;;18.17;45.48;99179.97;11176272;26;891;-71
2024/04/17 19:01:25;;;;;;;;;;;19.00;48.70;;;18.16;45.51;99179.13;11176468;26;1849;-71
2024/04/17 19:06:20;;;;;;;;;;;19.00;48.70;;;18.17;45.77;99187.88;11177284;26;911;-71
2024/04/17 19:11:16;;;;;;;;;;;19.10;48.70;;;18.18;45.69;99194.84;11176542;26;914;-71
2024/04/17 19:16:11;;;;;;;;;;;19.00;48.60;;;18.18;45.51;99197.50;11176320;26;827;-71
2024/04/17 19:21:09;;;;;;;;;;;19.00;48.70;;;18.19;45.42;99207.13;11175108;26;1850;-71
2024/04/17 19:26:04;;;;;;;;;;;19.00;48.70;;;18.18;45.61;99208.91;11175919;26;1323;-71
2024/04/17 19:30:59;;;;;;;;;;;19.00;48.70;;;18.19;45.51;99212.41;11175840;26;997;-71
2024/04/17 19:35:55;;;;;;;;;;;19.00;48.70;;;18.18;45.21;99224.75;11175807;26;903;-71
2024/04/17 19:40:51;;;;;;;;;;;19.00;48.70;;;18.20;45.37;99222.00;11175561;26;883;-71
2024/04/17 19:45:46;;;;;;;;;;;19.00;48.60;;;18.18;45.65;99227.38;11175395;26;1856;-71
2024/04/17 19:50:41;;;;;;;;;;;19.00;48.80;;;18.18;45.29;99230.03;11175928;26;885;-71
2024/04/17 19:55:37;;;;;;;;;;;18.90;48.80;;;18.18;45.54;99227.38;11175042;26;813;-71
2024/04/17 20:00:32;;;;;;;;;;;19.00;48.90;;;18.17;45.64;99232.72;11174782;26;1005;-71
2024/04/17 20:05:28;;;;;;;;;;;18.90;48.80;;;18.16;45.92;99245.06;11174757;26;2298;-71
2024/04/17 20:10:23;;;;;;;;;;;18.90;48.70;;;18.16;45.64;99244.22;11175073;26;913;-71
2024/04/17 20:15:20;;;;;;;;;;;18.90;48.80;;;18.15;45.58;99234.59;11175731;26;811;-71
2024/04/17 20:20:16;;;;;;;;;;;18.90;48.80;;;18.14;45.30;99244.28;11174979;26;805;-70
2024/04/17 20:25:11;;;;;;;;;;;18.90;48.70;;;18.14;45.67;99251.34;11175294;26;1824;-70
2024/04/17 20:30:07;;;;;;;;;;;18.90;48.80;;;18.12;45.53;99248.78;11174552;26;867;-70
2024/04/17 20:35:02;;;;;;;;;;;18.80;48.80;;;18.12;45.50;99245.31;11173559;26;895;-70
2024/04/17 20:39:57;;;;;;;;;;;18.80;48.80;;;18.11;45.13;99247.09;11174250;26;902;-70
2024/04/17 20:44:53;;;;;;;;;;;18.80;48.70;;;18.11;45.18;99260.28;11173903;26;1829;-70
2024/04/17 20:49:48;;;;;;;;;;;18.80;48.70;;;18.10;45.76;99261.22;11174622;26;841;-70
2024/04/17 20:54:44;;;;;;;;;;;18.70;48.70;;;18.08;45.56;99260.44;11174381;26;957;-70
2024/04/17 20:59:39;;;;;;;;;;;18.70;48.70;;;18.07;45.50;99261.34;11173276;26;1287;-70
2024/04/17 21:04:34;;;;;;;;;;;18.70;48.70;;;18.05;45.62;99260.59;11172534;26;1870;-70
2024/04/17 21:09:30;;;;;;;;;;;18.70;48.80;;;18.04;45.67;99271.22;11172715;26;954;-70
2024/04/17 21:14:25;;;;;;;;;;;18.60;48.80;;;18.03;44.93;99270.38;11172885;26;865;-70
2024/04/17 21:19:21;;;;;;;;;;;18.60;48.80;;;18.00;45.53;99270.53;11172835;26;913;-70
2024/04/17 21:24:16;;;;;;;;;;;18.60;48.80;;;18.00;45.24;99283.72;11172640;26;1837;-70
2024/04/17 21:29:13;;;;;;;;;;;18.60;48.70;;;17.99;45.28;99281.16;11171820;26;914;-70
2024/04/17 21:34:10;;;;;;;;;;;18.60;48.70;;;17.97;44.94;99283.84;11171980;26;918;-70
2024/04/17 21:39:05;;;;;;;;;;;18.50;48.80;;;17.95;45.25;99283.97;11171455;26;930;-70
2024/04/17 21:44:00;;;;;;;;;;;18.50;48.80;;;17.93;45.49;99285.81;11173107;26;1872;-70
2024/04/17 21:48:56;;;;;;;;;;;18.50;48.90;;;17.92;45.02;99285.88;11178777;26;888;-71
2024/04/17 21:53:51;;;;;;;;;;;18.50;48.80;;;17.90;45.02;99285.97;11179277;26;878;-70
2024/04/17 21:58:47;;;;;;;;;;;18.50;48.70;;;17.90;45.31;99293.03;11178302;26;1253;-70
2024/04/17 22:03:42;;;;;;;;;;;18.50;48.80;;;17.88;45.02;99302.81;11179171;26;1844;-70
2024/04/17 22:08:38;;;;;;;;;;;18.40;48.80;;;17.86;44.99;99299.38;11178780;26;760;-71
2024/04/17 22:13:33;;;;;;;;;;;18.40;48.90;;;17.84;45.27;99303.88;11178664;26;817;-70
2024/04/17 22:18:28;;;;;;;;;;;18.40;48.90;;;17.84;45.23;99309.16;11178511;26;1020;-70
2024/04/17 22:23:24;;;;;;;;;;;18.40;48.90;;;17.84;44.87;99322.31;11178312;26;1914;-70
2024/04/17 22:28:19;;;;;;;;;;;18.40;48.80;;;17.82;45.16;99321.56;11178229;26;989;-70
2024/04/17 22:33:15;;;;;;;;;;;18.30;48.80;;;17.81;44.82;99314.59;11178130;26;915;-70
2024/04/17 22:38:10;;;;;;;;;;;18.40;48.90;;;17.81;44.97;99317.22;11178456;26;810;-70
2024/04/17 22:43:05;;;;;;;;;;;18.40;48.90;;;17.80;45.16;99324.28;11177771;26;1848;-70
2024/04/17 22:48:01;;;;;;;;;;;18.40;48.80;;;17.79;45.28;99324.31;11178464;26;814;-70